sensor_id;sensor_type;location;lat;lon;timestamp;P1;durP1;ratioP1;P2;durP2;ratioP2
41059;SDS011;26811;53.160;8.202;2022-09-03T00:03:42;4.32;;;2.40;;
41059;SDS011;26811;53.160;8.202;2022-09-03T00:09:01;5.80;;;2.33;;
41059;SDS011;26811;53.160;8.202;2022-09-03T00:14:12;3.17;;;2.65;;
41059;SDS011;26811;53.160;8.202;2022-09-03T00:19:20;5.95;;;2.33;;
41059;SDS011;26811;53.160;8.202;2022-09-03T00:24:27;3.47;;;2.47;;
41059;SDS011;26811;53.160;8.202;2022-09-03T00:29:37;5.35;;;2.20;;
41059;SDS011;26811;53.160;8.202;2022-09-03T00:34:42;5.00;;;2.70;;
41059;SDS011;26811;53.160;8.202;2022-09-03T00:39:48;5.35;;;2.80;;
41059;SDS011;26811;53.160;8.202;2022-09-03T00:50:11;4.65;;;2.60;;
41059;SDS011;26811;53.160;8.202;2022-09-03T00:55:24;4.18;;;2.90;;
41059;SDS011;26811;53.160;8.202;2022-09-03T01:00:33;7.30;;;2.80;;
41059;SDS011;26811;53.160;8.202;2022-09-03T01:10:56;7.20;;;3.05;;
41059;SDS011;26811;53.160;8.202;2022-09-03T01:27:02;4.03;;;2.90;;
41059;SDS011;26811;53.160;8.202;2022-09-03T01:32:11;3.75;;;2.75;;
41059;SDS011;26811;53.160;8.202;2022-09-03T01:37:35;4.45;;;2.75;;
41059;SDS011;26811;53.160;8.202;2022-09-03T01:43:07;5.78;;;2.83;;
41059;SDS011;26811;53.160;8.202;2022-09-03T01:59:19;7.22;;;3.05;;
41059;SDS011;26811;53.160;8.202;2022-09-03T02:04:25;5.35;;;3.22;;
41059;SDS011;26811;53.160;8.202;2022-09-03T02:09:27;8.33;;;3.40;;
41059;SDS011;26811;53.160;8.202;2022-09-03T02:14:28;6.85;;;3.20;;
41059;SDS011;26811;53.160;8.202;2022-09-03T02:19:29;5.75;;;3.53;;
41059;SDS011;26811;53.160;8.202;2022-09-03T02:24:31;4.72;;;3.15;;
41059;SDS011;26811;53.160;8.202;2022-09-03T02:29:32;5.15;;;3.13;;
41059;SDS011;26811;53.160;8.202;2022-09-03T02:34:32;4.10;;;3.50;;
41059;SDS011;26811;53.160;8.202;2022-09-03T02:39:33;9.63;;;3.75;;
41059;SDS011;26811;53.160;8.202;2022-09-03T02:44:34;6.32;;;3.30;;
41059;SDS011;26811;53.160;8.202;2022-09-03T02:49:38;8.00;;;3.20;;
41059;SDS011;26811;53.160;8.202;2022-09-03T02:54:39;8.48;;;3.53;;
41059;SDS011;26811;53.160;8.202;2022-09-03T02:59:40;13.90;;;4.05;;
41059;SDS011;26811;53.160;8.202;2022-09-03T03:04:44;4.07;;;3.05;;
41059;SDS011;26811;53.160;8.202;2022-09-03T03:09:45;8.52;;;3.30;;
41059;SDS011;26811;53.160;8.202;2022-09-03T03:14:45;6.63;;;3.35;;
41059;SDS011;26811;53.160;8.202;2022-09-03T03:19:46;8.27;;;3.25;;
41059;SDS011;26811;53.160;8.202;2022-09-03T03:24:48;6.72;;;3.80;;
41059;SDS011;26811;53.160;8.202;2022-09-03T03:29:49;5.32;;;3.13;;
41059;SDS011;26811;53.160;8.202;2022-09-03T03:34:49;6.82;;;3.60;;
41059;SDS011;26811;53.160;8.202;2022-09-03T03:39:50;4.22;;;3.40;;
41059;SDS011;26811;53.160;8.202;2022-09-03T03:44:51;5.35;;;3.38;;
41059;SDS011;26811;53.160;8.202;2022-09-03T03:49:51;8.52;;;3.30;;
41059;SDS011;26811;53.160;8.202;2022-09-03T03:54:52;6.10;;;3.28;;
41059;SDS011;26811;53.160;8.202;2022-09-03T03:59:52;6.72;;;3.30;;
41059;SDS011;26811;53.160;8.202;2022-09-03T04:04:53;4.13;;;3.30;;
41059;SDS011;26811;53.160;8.202;2022-09-03T04:09:53;4.85;;;3.50;;
41059;SDS011;26811;53.160;8.202;2022-09-03T04:14:54;4.78;;;3.75;;
41059;SDS011;26811;53.160;8.202;2022-09-03T04:19:54;4.57;;;3.75;;
41059;SDS011;26811;53.160;8.202;2022-09-03T04:24:55;7.72;;;3.25;;
41059;SDS011;26811;53.160;8.202;2022-09-03T04:29:55;5.05;;;3.40;;
41059;SDS011;26811;53.160;8.202;2022-09-03T04:34:56;3.95;;;3.50;;
41059;SDS011;26811;53.160;8.202;2022-09-03T04:39:56;6.80;;;3.60;;
41059;SDS011;26811;53.160;8.202;2022-09-03T04:44:58;8.27;;;3.60;;
41059;SDS011;26811;53.160;8.202;2022-09-03T04:49:58;8.55;;;3.60;;
41059;SDS011;26811;53.160;8.202;2022-09-03T04:55:00;5.28;;;3.83;;
41059;SDS011;26811;53.160;8.202;2022-09-03T05:00:02;7.80;;;3.67;;
41059;SDS011;26811;53.160;8.202;2022-09-03T05:05:03;5.78;;;3.65;;
41059;SDS011;26811;53.160;8.202;2022-09-03T05:10:08;8.18;;;3.80;;
41059;SDS011;26811;53.160;8.202;2022-09-03T05:15:12;10.48;;;3.90;;
41059;SDS011;26811;53.160;8.202;2022-09-03T05:20:13;8.73;;;3.65;;
41059;SDS011;26811;53.160;8.202;2022-09-03T05:25:13;4.22;;;3.70;;
41059;SDS011;26811;53.160;8.202;2022-09-03T05:30:14;5.07;;;3.70;;
41059;SDS011;26811;53.160;8.202;2022-09-03T05:35:15;7.28;;;3.75;;
41059;SDS011;26811;53.160;8.202;2022-09-03T05:40:15;9.35;;;3.70;;
41059;SDS011;26811;53.160;8.202;2022-09-03T05:45:16;7.32;;;3.72;;
41059;SDS011;26811;53.160;8.202;2022-09-03T05:50:17;6.30;;;3.35;;
41059;SDS011;26811;53.160;8.202;2022-09-03T05:55:17;10.60;;;3.70;;
41059;SDS011;26811;53.160;8.202;2022-09-03T06:00:18;6.07;;;3.60;;
41059;SDS011;26811;53.160;8.202;2022-09-03T06:05:19;4.88;;;3.30;;
41059;SDS011;26811;53.160;8.202;2022-09-03T06:10:20;5.47;;;3.30;;
41059;SDS011;26811;53.160;8.202;2022-09-03T06:15:20;7.90;;;3.30;;
41059;SDS011;26811;53.160;8.202;2022-09-03T06:20:21;6.85;;;3.47;;
41059;SDS011;26811;53.160;8.202;2022-09-03T06:25:26;5.50;;;3.67;;
41059;SDS011;26811;53.160;8.202;2022-09-03T06:30:27;4.85;;;2.90;;
41059;SDS011;26811;53.160;8.202;2022-09-03T06:35:27;3.25;;;2.95;;
41059;SDS011;26811;53.160;8.202;2022-09-03T06:40:28;5.68;;;3.25;;
41059;SDS011;26811;53.160;8.202;2022-09-03T06:45:30;3.90;;;2.63;;
41059;SDS011;26811;53.160;8.202;2022-09-03T06:50:31;6.20;;;3.13;;
41059;SDS011;26811;53.160;8.202;2022-09-03T06:55:31;6.75;;;3.03;;
41059;SDS011;26811;53.160;8.202;2022-09-03T07:00:32;3.33;;;2.45;;
41059;SDS011;26811;53.160;8.202;2022-09-03T07:05:32;4.43;;;2.17;;
41059;SDS011;26811;53.160;8.202;2022-09-03T07:10:35;6.22;;;2.17;;
41059;SDS011;26811;53.160;8.202;2022-09-03T07:15:36;4.32;;;2.40;;
41059;SDS011;26811;53.160;8.202;2022-09-03T07:20:37;4.32;;;2.10;;
41059;SDS011;26811;53.160;8.202;2022-09-03T07:25:37;2.25;;;2.03;;
41059;SDS011;26811;53.160;8.202;2022-09-03T07:30:38;4.07;;;1.90;;
41059;SDS011;26811;53.160;8.202;2022-09-03T07:35:38;4.57;;;1.88;;
41059;SDS011;26811;53.160;8.202;2022-09-03T07:40:39;3.05;;;2.20;;
41059;SDS011;26811;53.160;8.202;2022-09-03T07:45:39;3.35;;;1.90;;
41059;SDS011;26811;53.160;8.202;2022-09-03T07:50:40;6.38;;;1.73;;
41059;SDS011;26811;53.160;8.202;2022-09-03T07:55:40;5.38;;;2.05;;
41059;SDS011;26811;53.160;8.202;2022-09-03T08:00:41;3.40;;;2.00;;
41059;SDS011;26811;53.160;8.202;2022-09-03T08:05:42;3.88;;;1.80;;
41059;SDS011;26811;53.160;8.202;2022-09-03T08:10:42;4.93;;;2.10;;
41059;SDS011;26811;53.160;8.202;2022-09-03T08:15:52;4.05;;;1.88;;
41059;SDS011;26811;53.160;8.202;2022-09-03T08:20:53;10.45;;;2.20;;
41059;SDS011;26811;53.160;8.202;2022-09-03T08:25:59;2.95;;;2.00;;
41059;SDS011;26811;53.160;8.202;2022-09-03T08:31:07;3.45;;;1.70;;
41059;SDS011;26811;53.160;8.202;2022-09-03T08:36:13;2.13;;;1.90;;
41059;SDS011;26811;53.160;8.202;2022-09-03T08:41:17;3.45;;;1.80;;
41059;SDS011;26811;53.160;8.202;2022-09-03T08:46:23;6.72;;;1.85;;
41059;SDS011;26811;53.160;8.202;2022-09-03T08:51:31;7.25;;;1.90;;
41059;SDS011;26811;53.160;8.202;2022-09-03T08:56:33;5.37;;;1.90;;
41059;SDS011;26811;53.160;8.202;2022-09-03T09:07:29;4.30;;;1.73;;
41059;SDS011;26811;53.160;8.202;2022-09-03T09:18:22;3.65;;;1.67;;
41059;SDS011;26811;53.160;8.202;2022-09-03T09:33:34;2.00;;;1.48;;
41059;SDS011;26811;53.160;8.202;2022-09-03T09:38:35;6.75;;;2.00;;
41059;SDS011;26811;53.160;8.202;2022-09-03T09:43:37;5.03;;;1.90;;
41059;SDS011;26811;53.160;8.202;2022-09-03T09:48:46;4.77;;;1.47;;
41059;SDS011;26811;53.160;8.202;2022-09-03T09:54:07;3.47;;;1.40;;
41059;SDS011;26811;53.160;8.202;2022-09-03T09:59:13;3.28;;;1.30;;
41059;SDS011;26811;53.160;8.202;2022-09-03T10:04:24;2.83;;;1.60;;
41059;SDS011;26811;53.160;8.202;2022-09-03T10:09:30;2.70;;;1.50;;
41059;SDS011;26811;53.160;8.202;2022-09-03T10:14:54;9.75;;;1.70;;
41059;SDS011;26811;53.160;8.202;2022-09-03T10:20:14;3.15;;;1.35;;
41059;SDS011;26811;53.160;8.202;2022-09-03T10:25:36;11.68;;;1.30;;
41059;SDS011;26811;53.160;8.202;2022-09-03T10:35:52;2.20;;;1.23;;
41059;SDS011;26811;53.160;8.202;2022-09-03T10:46:38;6.68;;;1.50;;
41059;SDS011;26811;53.160;8.202;2022-09-03T10:51:47;4.63;;;1.50;;
41059;SDS011;26811;53.160;8.202;2022-09-03T10:57:02;7.07;;;1.40;;
41059;SDS011;26811;53.160;8.202;2022-09-03T11:08:05;6.82;;;1.58;;
41059;SDS011;26811;53.160;8.202;2022-09-03T11:13:22;2.70;;;1.50;;
41059;SDS011;26811;53.160;8.202;2022-09-03T11:23:39;4.60;;;1.50;;
41059;SDS011;26811;53.160;8.202;2022-09-03T11:34:12;3.72;;;1.38;;
41059;SDS011;26811;53.160;8.202;2022-09-03T11:39:33;2.38;;;1.40;;
41059;SDS011;26811;53.160;8.202;2022-09-03T11:44:36;5.85;;;2.10;;
41059;SDS011;26811;53.160;8.202;2022-09-03T11:49:43;3.85;;;1.67;;
41059;SDS011;26811;53.160;8.202;2022-09-03T11:54:45;2.70;;;1.70;;
41059;SDS011;26811;53.160;8.202;2022-09-03T11:59:47;1.50;;;1.40;;
41059;SDS011;26811;53.160;8.202;2022-09-03T12:04:50;2.92;;;1.25;;
41059;SDS011;26811;53.160;8.202;2022-09-03T12:15:13;3.08;;;1.23;;
41059;SDS011;26811;53.160;8.202;2022-09-03T12:20:27;5.65;;;1.92;;
41059;SDS011;26811;53.160;8.202;2022-09-03T12:25:28;3.43;;;1.50;;
41059;SDS011;26811;53.160;8.202;2022-09-03T12:30:28;2.88;;;1.42;;
41059;SDS011;26811;53.160;8.202;2022-09-03T12:35:29;1.50;;;1.40;;
41059;SDS011;26811;53.160;8.202;2022-09-03T12:40:30;7.07;;;1.58;;
41059;SDS011;26811;53.160;8.202;2022-09-03T12:45:31;2.85;;;1.60;;
41059;SDS011;26811;53.160;8.202;2022-09-03T12:50:41;6.55;;;1.60;;
41059;SDS011;26811;53.160;8.202;2022-09-03T12:55:45;2.88;;;1.50;;
41059;SDS011;26811;53.160;8.202;2022-09-03T13:06:00;10.18;;;1.60;;
41059;SDS011;26811;53.160;8.202;2022-09-03T13:11:07;2.93;;;1.50;;
41059;SDS011;26811;53.160;8.202;2022-09-03T13:21:20;1.50;;;1.40;;
41059;SDS011;26811;53.160;8.202;2022-09-03T13:31:52;9.68;;;2.05;;
41059;SDS011;26811;53.160;8.202;2022-09-03T13:42:34;5.03;;;1.27;;
41059;SDS011;26811;53.160;8.202;2022-09-03T13:47:48;7.63;;;1.65;;
41059;SDS011;26811;53.160;8.202;2022-09-03T13:53:29;4.63;;;1.60;;
41059;SDS011;26811;53.160;8.202;2022-09-03T13:58:44;3.38;;;1.60;;
41059;SDS011;26811;53.160;8.202;2022-09-03T14:03:51;4.35;;;1.40;;
41059;SDS011;26811;53.160;8.202;2022-09-03T14:08:59;4.10;;;1.42;;
41059;SDS011;26811;53.160;8.202;2022-09-03T14:15:09;5.57;;;1.95;;
41059;SDS011;26811;53.160;8.202;2022-09-03T14:24:58;4.28;;;1.60;;
41059;SDS011;26811;53.160;8.202;2022-09-03T14:30:03;6.82;;;1.50;;
41059;SDS011;26811;53.160;8.202;2022-09-03T14:45:48;5.68;;;1.48;;
41059;SDS011;26811;53.160;8.202;2022-09-03T14:56:08;2.20;;;1.40;;
41059;SDS011;26811;53.160;8.202;2022-09-03T15:01:22;3.90;;;1.77;;
41059;SDS011;26811;53.160;8.202;2022-09-03T15:06:38;6.53;;;1.67;;
41059;SDS011;26811;53.160;8.202;2022-09-03T15:11:50;4.53;;;1.70;;
41059;SDS011;26811;53.160;8.202;2022-09-03T15:17:12;7.32;;;1.65;;
41059;SDS011;26811;53.160;8.202;2022-09-03T15:22:26;4.72;;;1.60;;
41059;SDS011;26811;53.160;8.202;2022-09-03T15:32:59;2.47;;;1.50;;
41059;SDS011;26811;53.160;8.202;2022-09-03T15:38:18;6.75;;;1.67;;
41059;SDS011;26811;53.160;8.202;2022-09-03T15:43:21;1.90;;;1.63;;
41059;SDS011;26811;53.160;8.202;2022-09-03T15:53:57;7.70;;;1.55;;
41059;SDS011;26811;53.160;8.202;2022-09-03T15:59:14;4.13;;;1.48;;
41059;SDS011;26811;53.160;8.202;2022-09-03T16:04:21;2.38;;;1.80;;
41059;SDS011;26811;53.160;8.202;2022-09-03T16:15:11;4.97;;;1.50;;
41059;SDS011;26811;53.160;8.202;2022-09-03T16:20:32;4.95;;;1.90;;
41059;SDS011;26811;53.160;8.202;2022-09-03T16:42:00;5.70;;;2.30;;
41059;SDS011;26811;53.160;8.202;2022-09-03T16:58:16;3.63;;;1.70;;
41059;SDS011;26811;53.160;8.202;2022-09-03T17:08:46;3.05;;;1.60;;
41059;SDS011;26811;53.160;8.202;2022-09-03T17:14:08;5.05;;;1.92;;
41059;SDS011;26811;53.160;8.202;2022-09-03T17:19:23;5.70;;;1.50;;
41059;SDS011;26811;53.160;8.202;2022-09-03T17:35:05;5.15;;;1.80;;
41059;SDS011;26811;53.160;8.202;2022-09-03T17:40:20;2.92;;;1.95;;
41059;SDS011;26811;53.160;8.202;2022-09-03T17:46:07;3.08;;;2.13;;
41059;SDS011;26811;53.160;8.202;2022-09-03T17:51:09;6.65;;;2.20;;
41059;SDS011;26811;53.160;8.202;2022-09-03T17:56:22;4.78;;;2.00;;
41059;SDS011;26811;53.160;8.202;2022-09-03T18:01:27;5.07;;;1.92;;
41059;SDS011;26811;53.160;8.202;2022-09-03T18:06:42;3.92;;;1.90;;
41059;SDS011;26811;53.160;8.202;2022-09-03T18:12:10;5.18;;;1.92;;
41059;SDS011;26811;53.160;8.202;2022-09-03T18:17:15;3.08;;;2.00;;
41059;SDS011;26811;53.160;8.202;2022-09-03T18:22:32;7.30;;;2.10;;
41059;SDS011;26811;53.160;8.202;2022-09-03T18:28:04;6.00;;;2.45;;
41059;SDS011;26811;53.160;8.202;2022-09-03T18:33:27;7.35;;;2.38;;
41059;SDS011;26811;53.160;8.202;2022-09-03T18:38:46;6.90;;;2.60;;
41059;SDS011;26811;53.160;8.202;2022-09-03T19:24:12;5.45;;;2.38;;
41059;SDS011;26811;53.160;8.202;2022-09-03T19:35:13;5.00;;;2.13;;
41059;SDS011;26811;53.160;8.202;2022-09-03T19:52:12;5.72;;;2.40;;
41059;SDS011;26811;53.160;8.202;2022-09-03T19:57:49;4.10;;;2.20;;
41059;SDS011;26811;53.160;8.202;2022-09-03T20:03:13;4.32;;;2.25;;
41059;SDS011;26811;53.160;8.202;2022-09-03T20:08:32;6.93;;;2.22;;
41059;SDS011;26811;53.160;8.202;2022-09-03T20:13:51;4.93;;;2.08;;
41059;SDS011;26811;53.160;8.202;2022-09-03T20:19:21;7.10;;;2.22;;
41059;SDS011;26811;53.160;8.202;2022-09-03T20:24:35;6.13;;;2.25;;
41059;SDS011;26811;53.160;8.202;2022-09-03T20:29:55;4.60;;;2.10;;
41059;SDS011;26811;53.160;8.202;2022-09-03T20:51:19;7.22;;;2.20;;
41059;SDS011;26811;53.160;8.202;2022-09-03T21:01:55;3.28;;;2.25;;
41059;SDS011;26811;53.160;8.202;2022-09-03T21:23:04;5.63;;;2.65;;
41059;SDS011;26811;53.160;8.202;2022-09-03T21:28:27;10.75;;;3.05;;
41059;SDS011;26811;53.160;8.202;2022-09-03T21:33:37;6.95;;;2.55;;
41059;SDS011;26811;53.160;8.202;2022-09-03T21:38:38;5.25;;;2.45;;
41059;SDS011;26811;53.160;8.202;2022-09-03T21:43:44;6.60;;;2.45;;
41059;SDS011;26811;53.160;8.202;2022-09-03T21:48:57;3.20;;;2.20;;
41059;SDS011;26811;53.160;8.202;2022-09-03T21:54:00;3.58;;;2.40;;
41059;SDS011;26811;53.160;8.202;2022-09-03T22:04:43;4.63;;;2.35;;
41059;SDS011;26811;53.160;8.202;2022-09-03T22:09:45;5.25;;;2.22;;
41059;SDS011;26811;53.160;8.202;2022-09-03T22:14:55;4.57;;;2.35;;
41059;SDS011;26811;53.160;8.202;2022-09-03T22:19:55;8.93;;;2.67;;
41059;SDS011;26811;53.160;8.202;2022-09-03T22:25:00;5.13;;;2.60;;
41059;SDS011;26811;53.160;8.202;2022-09-03T22:30:11;9.00;;;2.63;;
41059;SDS011;26811;53.160;8.202;2022-09-03T22:35:27;5.63;;;2.67;;
41059;SDS011;26811;53.160;8.202;2022-09-03T22:40:53;7.30;;;2.97;;
41059;SDS011;26811;53.160;8.202;2022-09-03T22:46:15;6.17;;;2.67;;
41059;SDS011;26811;53.160;8.202;2022-09-03T22:56:19;6.03;;;2.70;;
41059;SDS011;26811;53.160;8.202;2022-09-03T23:01:28;7.55;;;2.80;;
41059;SDS011;26811;53.160;8.202;2022-09-03T23:06:38;6.93;;;3.20;;
41059;SDS011;26811;53.160;8.202;2022-09-03T23:11:59;7.35;;;3.10;;
41059;SDS011;26811;53.160;8.202;2022-09-03T23:17:11;5.70;;;3.28;;
41059;SDS011;26811;53.160;8.202;2022-09-03T23:22:14;5.15;;;3.25;;
41059;SDS011;26811;53.160;8.202;2022-09-03T23:27:23;7.40;;;3.28;;
41059;SDS011;26811;53.160;8.202;2022-09-03T23:32:30;7.80;;;3.08;;
41059;SDS011;26811;53.160;8.202;2022-09-03T23:42:59;5.20;;;2.88;;
